Time;durP1;ratioP1;P1;durP2;ratioP2;P2;SDS_P1;SDS_P2;PMS_P1;PMS_P2;Temp;Humidity;BMP_temperature;BMP_pressure;BME280_temperature;BME280_humidity;BME280_pressure;Samples;Min_cycle;Max_cycle;Signal;HPM_P1;HPM_P2
2022/05/23 00:01:42;;;;;;;4.18;3.03;;;13.70;99.90;;;;;;5092936;28;19930;-68
2022/05/23 00:04:08;;;;;;;9.63;4.05;;;14.10;99.90;;;;;;5093695;28;20048;-68
2022/05/23 00:06:34;;;;;;;7.18;3.83;;;13.40;99.90;;;;;;5093613;28;20788;-68
2022/05/23 00:09:00;;;;;;;6.15;3.63;;;13.30;99.90;;;;;;5093990;28;20051;-69
2022/05/23 00:11:26;;;;;;;5.55;3.90;;;13.90;99.90;;;;;;5092803;28;20043;-69
2022/05/23 00:13:51;;;;;;;6.57;3.83;;;13.50;99.90;;;;;;5093931;28;20395;-68
2022/05/23 00:16:21;;;;;;;;;;;13.30;99.90;;;;;;5093980;28;20044;-68
2022/05/23 00:18:48;;;;;;;6.03;3.88;;;13.70;99.90;;;;;;5093572;28;19923;-68
2022/05/23 00:21:15;;;;;;;6.55;4.40;;;13.00;99.90;;;;;;5093269;28;20115;-69
2022/05/23 00:23:41;;;;;;;7.07;4.65;;;13.40;99.90;;;;;;5092370;28;20101;-68
2022/05/23 00:26:07;;;;;;;6.45;3.65;;;13.20;99.90;;;;;;5092382;28;20051;-69
2022/05/23 00:28:33;;;;;;;8.65;4.35;;;13.00;99.90;;;;;;5093440;28;20043;-71
2022/05/23 00:30:58;;;;;;;9.52;4.75;;;13.90;99.90;;;;;;5093494;28;20126;-68
2022/05/23 00:36:08;;;;;;;8.05;4.07;;;13.00;99.90;;;;;;5093324;28;20498;-69
2022/05/23 00:38:34;;;;;;;10.27;4.82;;;13.40;99.90;;;;;;5093178;28;20047;-67
2022/05/23 00:44:04;;;;;;;6.93;4.07;;;12.80;99.90;;;;;;5093036;28;20098;-68
2022/05/23 00:46:30;;;;;;;8.55;4.47;;;13.00;99.90;;;;;;5093082;28;20131;-69
2022/05/23 00:49:02;;;;;;;6.68;4.40;;;12.90;99.90;;;;;;5093342;28;20130;-68
2022/05/23 00:51:29;;;;;;;10.52;4.85;;;13.00;99.90;;;;;;5092831;28;20587;-68
2022/05/23 00:53:59;;;;;;;8.02;4.40;;;12.90;99.90;;;;;;5093103;28;20052;-68
2022/05/23 00:56:37;;;;;;;7.40;4.63;;;12.70;99.90;;;;;;5087397;28;20126;-71
2022/05/23 00:59:05;;;;;;;8.52;4.53;;;12.80;99.90;;;;;;5090892;28;20079;-69
2022/05/23 01:01:34;;;;;;;10.32;4.97;;;12.90;99.90;;;;;;5090871;28;20767;-70
2022/05/23 01:04:00;;;;;;;7.00;4.57;;;12.70;99.90;;;;;;5092422;28;20044;-67
2022/05/23 01:06:26;;;;;;;10.52;4.72;;;12.70;99.90;;;;;;5092909;28;20399;-68
2022/05/23 01:08:55;;;;;;;6.95;4.95;;;13.90;99.90;;;;;;5092655;28;20559;-68
2022/05/23 01:11:22;;;;;;;8.50;4.88;;;13.50;99.90;;;;;;5092237;28;20059;-69
2022/05/23 01:13:48;;;;;;;8.88;4.93;;;13.10;99.90;;;;;;5092460;28;20482;-68
2022/05/23 01:16:13;;;;;;;10.77;5.50;;;13.70;99.90;;;;;;5092526;28;20040;-68
2022/05/23 01:18:40;;;;;;;6.68;4.75;;;12.60;99.90;;;;;;5092658;28;20048;-69
2022/05/23 01:21:09;;;;;;;10.85;5.72;;;12.60;99.90;;;;;;5092652;28;20083;-68
2022/05/23 01:23:50;;;;;;;9.85;5.70;;;12.50;99.90;;;;;;5092493;28;20055;-69
2022/05/23 01:26:16;;;;;;;9.48;5.95;;;12.50;99.90;;;;;;5092452;28;20096;-70
2022/05/23 01:28:42;;;;;;;7.28;5.20;;;13.00;99.90;;;;;;5092608;28;20133;-68
2022/05/23 01:31:10;;;;;;;9.93;5.55;;;12.40;99.90;;;;;;5092365;28;20056;-68
2022/05/23 01:33:36;;;;;;;6.93;5.80;;;12.30;99.90;;;;;;5092336;28;20093;-71
2022/05/23 01:36:03;;;;;;;10.65;5.20;;;12.20;99.90;;;;;;5092543;28;20133;-69
2022/05/23 01:38:29;;;;;;;11.25;5.25;;;12.50;99.90;;;;;;5092277;28;20391;-66
2022/05/23 01:40:56;;;;;;;11.55;6.03;;;12.10;99.90;;;;;;5092475;28;20044;-67
2022/05/23 01:43:22;;;;;;;10.57;6.10;;;13.30;99.90;;;;;;5092304;28;20582;-67
2022/05/23 01:45:48;;;;;;;8.95;6.13;;;12.40;99.90;;;;;;5092399;28;20036;-71
2022/05/23 01:48:14;;;;;;;7.57;5.68;;;12.70;99.90;;;;;;5092256;28;20395;-68
2022/05/23 01:50:39;;;;;;;11.73;6.05;;;12.50;99.90;;;;;;5092115;28;20044;-66
2022/05/23 01:53:05;;;;;;;7.43;5.85;;;12.20;99.90;;;;;;5092148;28;20377;-67
2022/05/23 01:55:31;;;;;;;;;;;13.00;99.90;;;;;;5092651;28;20134;-68
2022/05/23 01:57:57;;;;;;;11.57;6.25;;;12.50;99.90;;;;;;5092356;28;20008;-67
2022/05/23 02:03:07;;;;;;;8.05;6.72;;;12.60;99.90;;;;;;5092273;28;20055;-67
2022/05/23 02:05:34;;;;;;;8.43;6.00;;;12.40;99.90;;;;;;5092017;28;20469;-68
2022/05/23 02:08:00;;;;;;;8.80;6.15;;;12.60;99.90;;;;;;5092266;28;20436;-68
2022/05/23 02:10:26;;;;;;;11.30;6.50;;;13.30;99.90;;;;;;5091892;28;20119;-68
2022/05/23 02:12:52;;;;;;;8.77;6.40;;;12.50;99.90;;;;;;5092094;28;20039;-70
2022/05/23 02:15:19;;;;;;;10.68;6.03;;;12.30;99.90;;;;;;5092032;28;20131;-73
2022/05/23 02:17:45;;;;;;;10.30;6.30;;;12.60;99.90;;;;;;5091890;28;20048;-69
2022/05/23 02:20:12;;;;;;;9.30;6.60;;;12.40;99.90;;;;;;5091928;28;20059;-68
2022/05/23 02:22:37;;;;;;;10.75;6.85;;;12.20;99.90;;;;;;5091953;28;20067;-68
2022/05/23 02:25:04;;;;;;;8.82;6.38;;;12.40;99.90;;;;;;5095193;28;20044;-68
2022/05/23 02:27:30;;;;;;;9.75;6.43;;;12.40;99.90;;;;;;5095614;28;20051;-68
2022/05/23 02:29:57;;;;;;;10.95;6.70;;;12.50;99.90;;;;;;5095627;28;20090;-68
2022/05/23 02:32:23;;;;;;;10.98;6.53;;;12.20;99.90;;;;;;5095671;28;20075;-70
2022/05/23 02:34:48;;;;;;;7.57;5.95;;;12.40;99.90;;;;;;5093982;28;20098;-69
2022/05/23 02:37:14;;;;;;;11.90;6.32;;;12.50;99.90;;;;;;5095787;28;20083;-68
2022/05/23 02:39:40;;;;;;;10.27;5.72;;;12.30;99.90;;;;;;5095645;28;20059;-68
2022/05/23 02:42:07;;;;;;;11.13;5.80;;;12.30;99.90;;;;;;5095543;28;20040;-70
2022/05/23 02:44:34;;;;;;;10.50;6.20;;;12.30;99.90;;;;;;5095376;28;20044;-68
2022/05/23 02:47:00;;;;;;;7.97;5.65;;;12.30;99.90;;;;;;5095328;28;20043;-67
2022/05/23 02:49:25;;;;;;;6.55;5.05;;;12.30;99.90;;;;;;5095255;28;20123;-69
2022/05/23 02:51:51;;;;;;;7.45;5.53;;;13.00;99.90;;;;;;5095378;28;20101;-69
2022/05/23 02:54:17;;;;;;;11.05;5.45;;;12.40;99.90;;;;;;5095283;28;20052;-69
2022/05/23 02:56:42;;;;;;;5.93;5.18;;;13.60;99.90;;;;;;5095283;28;20047;-67
2022/05/23 02:59:08;;;;;;;9.43;5.50;;;12.60;99.90;;;;;;5095326;28;20087;-69
2022/05/23 03:03:01;;;;;;;8.27;5.32;;;12.20;99.90;;;;;;5095030;28;20040;-70
2022/05/23 03:04:19;;;;;;;10.20;5.45;;;12.10;99.90;;;;;;5095149;28;20090;-67
2022/05/23 03:06:45;;;;;;;6.97;4.97;;;12.00;99.90;;;;;;5094912;28;20139;-67
2022/05/23 03:09:11;;;;;;;10.85;5.15;;;12.10;99.90;;;;;;5095011;28;20052;-68
2022/05/23 03:11:37;;;;;;;6.68;4.57;;;12.30;99.90;;;;;;5094971;28;20483;-67
2022/05/23 03:14:03;;;;;;;9.18;5.30;;;12.50;99.90;;;;;;5094851;28;20056;-67
2022/05/23 03:16:28;;;;;;;9.88;5.50;;;12.30;99.90;;;;;;5094602;28;20036;-67
2022/05/23 03:18:54;;;;;;;8.80;4.50;;;12.10;99.90;;;;;;5094911;28;20559;-67
2022/05/23 03:27:01;;;;;;;9.43;5.05;;;12.00;99.90;;;;;;5094538;28;20101;-68
2022/05/23 03:29:30;;;;;;;7.70;4.75;;;12.10;99.90;;;;;;5094841;28;20146;-68
2022/05/23 03:31:56;;;;;;;8.48;4.80;;;12.00;99.90;;;;;;5094553;28;20046;-68
2022/05/23 03:34:23;;;;;;;7.85;4.60;;;12.10;99.90;;;;;;5093884;28;20087;-67
2022/05/23 03:36:48;;;;;;;8.77;5.15;;;11.90;99.90;;;;;;5094477;28;20467;-69
2022/05/23 03:39:16;;;;;;;8.07;4.60;;;12.50;99.90;;;;;;5094247;28;20131;-68
2022/05/23 03:41:41;;;;;;;7.22;5.07;;;12.30;99.90;;;;;;5094194;28;20044;-67
2022/05/23 03:44:08;;;;;;;12.82;5.15;;;12.30;99.90;;;;;;5094439;28;20048;-67
2022/05/23 03:46:34;;;;;;;;;;;12.10;99.90;;;;;;5094829;28;20052;-67
2022/05/23 03:49:01;;;;;;;6.25;4.45;;;12.80;99.90;;;;;;5094306;28;19920;-67
2022/05/23 03:51:27;;;;;;;11.98;5.28;;;12.10;99.90;;;;;;5094241;28;20056;-68
2022/05/23 03:53:53;;;;;;;;;;;12.30;99.90;;;;;;5094398;28;20184;-69
2022/05/23 03:56:18;;;;;;;6.78;4.57;;;11.90;99.90;;;;;;5094160;28;20026;-68
2022/05/23 03:58:44;;;;;;;13.15;4.63;;;12.00;99.90;;;;;;5093947;28;20044;-68
2022/05/23 04:01:16;;;;;;;7.63;4.88;;;12.20;99.90;;;;;;5093948;28;20476;-68
2022/05/23 04:03:42;;;;;;;11.20;4.68;;;12.40;99.90;;;;;;5093999;28;20040;-67
2022/05/23 04:06:08;;;;;;;;;;;12.10;99.90;;;;;;5094252;28;20048;-67
2022/05/23 04:08:35;;;;;;;6.75;4.68;;;12.20;99.90;;;;;;5093747;28;19926;-69
2022/05/23 04:11:02;;;;;;;7.28;4.60;;;13.00;99.90;;;;;;5092580;28;20043;-68
2022/05/23 04:13:28;;;;;;;8.85;4.70;;;12.50;99.90;;;;;;5093914;28;20510;-68
2022/05/23 04:15:54;;;;;;;8.00;4.90;;;13.00;99.90;;;;;;5093594;28;20044;-68
2022/05/23 04:18:20;;;;;;;;;;;12.80;99.90;;;;;;5094048;28;20048;-68
2022/05/23 04:20:47;;;;;;;7.93;4.72;;;13.60;99.90;;;;;;5093471;28;19926;-68
2022/05/23 04:23:13;;;;;;;9.30;5.05;;;12.80;99.90;;;;;;5093419;28;20048;-68
2022/05/23 04:25:40;;;;;;;17.55;4.97;;;13.00;99.90;;;;;;5093682;28;20046;-68
2022/05/23 04:28:06;;;;;;;7.28;4.63;;;12.40;99.90;;;;;;5093565;28;20086;-68
2022/05/23 04:30:32;;;;;;;;;;;12.50;99.90;;;;;;5093853;28;20097;-68
2022/05/23 04:35:42;;;;;;;7.68;5.00;;;13.20;99.90;;;;;;5093226;28;20062;-71
2022/05/23 04:38:08;;;;;;;9.32;4.90;;;12.30;99.90;;;;;;5093127;28;20127;-67
2022/05/23 04:40:34;;;;;;;9.13;4.70;;;12.30;99.90;;;;;;5093330;28;20048;-69
2022/05/23 04:43:00;;;;;;;8.25;4.80;;;12.00;99.90;;;;;;5093301;28;20434;-69
2022/05/23 04:45:26;;;;;;;;;;;12.40;99.90;;;;;;5093331;28;20044;-68
2022/05/23 04:50:36;;;;;;;13.60;5.38;;;12.50;99.90;;;;;;5093040;28;20095;-67
2022/05/23 04:53:02;;;;;;;9.18;4.95;;;12.30;99.90;;;;;;5091764;28;20081;-68
2022/05/23 04:55:28;;;;;;;10.90;5.47;;;12.60;99.90;;;;;;5092726;28;20044;-68
2022/05/23 04:57:54;;;;;;;;;;;12.50;99.90;;;;;;5093239;28;20547;-68
2022/05/23 05:00:21;;;;;;;8.15;5.05;;;12.30;99.90;;;;;;5092826;28;20044;-68
2022/05/23 05:02:48;;;;;;;9.98;5.10;;;12.60;99.90;;;;;;5092662;28;20051;-69
2022/05/23 05:05:16;;;;;;;8.95;5.18;;;12.30;99.90;;;;;;5092732;28;20400;-68
2022/05/23 05:07:42;;;;;;;10.38;5.40;;;12.70;99.90;;;;;;5091667;28;20509;-67
2022/05/23 05:10:08;;;;;;;9.38;5.45;;;12.90;99.90;;;;;;5092615;28;20329;-68
2022/05/23 05:12:34;;;;;;;9.15;5.15;;;12.90;99.90;;;;;;5092562;28;20048;-69
2022/05/23 05:14:59;;;;;;;11.40;5.75;;;12.60;99.90;;;;;;5092537;28;20040;-67
2022/05/23 05:17:27;;;;;;;16.10;6.05;;;12.80;99.90;;;;;;5092423;28;20467;-67
2022/05/23 05:19:53;;;;;;;10.98;6.10;;;13.30;99.90;;;;;;5092737;28;20408;-67
2022/05/23 05:22:19;;;;;;;9.52;6.13;;;12.80;99.90;;;;;;5091606;28;20052;-69
2022/05/23 05:24:45;;;;;;;9.63;5.88;;;13.00;99.90;;;;;;5092637;28;20058;-68
2022/05/23 05:27:11;;;;;;;11.95;6.75;;;13.20;99.90;;;;;;5092522;28;20044;-69
2022/05/23 05:29:37;;;;;;;11.30;6.55;;;13.10;99.90;;;;;;5092382;28;20047;-67
2022/05/23 05:32:09;;;;;;;9.38;6.35;;;13.60;99.90;;;;;;5092389;28;20048;-68
2022/05/23 05:35:03;;;;;;;9.80;6.88;;;13.10;99.90;;;;;;5090830;28;20130;-69
2022/05/23 05:37:33;;;;;;;9.98;6.38;;;13.50;99.90;;;;;;5090037;28;20138;-68
2022/05/23 05:40:03;;;;;;;11.93;6.78;;;13.20;99.90;;;;;;5092444;28;20127;-69
2022/05/23 05:42:40;;;;;;;8.05;5.82;;;13.50;99.90;;;;;;5107407;28;20814;-70
2022/05/23 05:45:14;;;;;;;11.50;6.45;;;13.80;99.90;;;;;;5089581;28;20419;-68
2022/05/23 05:47:42;;;;;;;11.38;6.47;;;13.60;99.90;;;;;;5091082;28;20188;-69
2022/05/23 05:50:15;;;;;;;11.60;6.22;;;14.00;99.90;;;;;;5090485;28;20087;-69
2022/05/23 05:52:40;;;;;;;10.05;7.03;;;13.70;99.90;;;;;;5089516;28;20419;-70
2022/05/23 05:55:08;;;;;;;11.40;6.65;;;14.10;99.90;;;;;;5089364;28;20047;-68
2022/05/23 05:57:34;;;;;;;8.30;6.65;;;14.10;99.90;;;;;;5089709;28;20036;-67
2022/05/23 05:59:59;;;;;;;13.88;7.05;;;13.80;99.90;;;;;;5095172;28;20083;-71
2022/05/23 06:02:25;;;;;;;10.30;6.90;;;13.80;99.90;;;;;;5093147;28;20377;-69
2022/05/23 06:04:51;;;;;;;7.90;6.55;;;14.20;99.90;;;;;;5093920;28;20117;-76
2022/05/23 06:12:52;;;;;;;10.23;6.70;;;14.20;99.90;;;;;;5092541;28;20434;-72
2022/05/23 06:15:17;;;;;;;8.75;6.70;;;14.40;99.90;;;;;;5094821;28;20071;-69
2022/05/23 06:17:43;;;;;;;16.38;7.80;;;14.20;99.90;;;;;;5094487;28;20394;-71
2022/05/23 06:20:11;;;;;;;10.93;6.45;;;14.50;99.90;;;;;;5093042;28;20044;-76
2022/05/23 06:22:36;;;;;;;9.77;7.43;;;14.90;99.90;;;;;;5091490;28;20507;-69
2022/05/23 06:25:03;;;;;;;35.30;13.30;;;14.70;99.90;;;;;;5092455;28;20090;-67
2022/05/23 06:27:29;;;;;;;11.02;7.63;;;15.00;99.90;;;;;;5095117;28;20074;-73
2022/05/23 06:29:55;;;;;;;12.10;7.05;;;15.00;99.90;;;;;;5092589;28;20047;-68
2022/05/23 06:32:21;;;;;;;18.48;7.88;;;15.00;99.90;;;;;;5095700;28;20055;-69
2022/05/23 06:34:48;;;;;;;11.50;7.22;;;15.50;99.90;;;;;;5094251;28;20169;-67
2022/05/23 06:37:13;;;;;;;;;;;15.60;99.90;;;;;;5095211;28;20052;-76
2022/05/23 06:39:39;;;;;;;14.93;7.80;;;15.60;99.90;;;;;;5094426;28;19920;-68
2022/05/23 06:42:05;;;;;;;;;;;15.30;99.90;;;;;;5095974;28;20503;-68
2022/05/23 06:44:31;;;;;;;9.90;6.97;;;15.90;99.90;;;;;;5095512;28;19982;-65
2022/05/23 06:46:57;;;;;;;14.02;7.28;;;15.80;99.90;;;;;;5095410;28;20051;-76
2022/05/23 06:49:22;;;;;;;13.80;7.60;;;16.20;99.90;;;;;;5094127;28;20043;-70
2022/05/23 06:51:52;;;;;;;;;;;16.10;99.90;;;;;;5095868;28;20484;-70
2022/05/23 06:54:22;;;;;;;9.82;7.22;;;16.00;99.90;;;;;;5095448;28;19920;-69
2022/05/23 06:56:48;;;;;;;13.63;7.63;;;16.30;99.90;;;;;;5095118;28;20483;-72
2022/05/23 07:14:00;;;;;;;12.85;8.07;;;16.80;99.90;;;;;;5110041;28;20051;-69
2022/05/23 07:16:25;;;;;;;11.85;8.38;;;17.00;99.90;;;;;;5109969;28;20052;-70
2022/05/23 07:18:51;;;;;;;;;;;16.90;99.90;;;;;;5110460;28;20384;-68
2022/05/23 07:21:17;;;;;;;9.10;7.20;;;16.80;99.90;;;;;;5110000;28;19919;-69
2022/05/23 07:23:43;;;;;;;14.40;7.97;;;16.90;99.90;;;;;;5109935;28;20081;-68
2022/05/23 07:26:16;;;;;;;;;;;17.00;99.90;;;;;;5110255;28;20094;-72
2022/05/23 07:28:46;;;;;;;13.48;7.82;;;17.20;99.90;;;;;;5109759;28;19920;-69
2022/05/23 07:31:12;;;;;;;14.55;7.72;;;17.20;99.90;;;;;;5109758;28;20040;-70
2022/05/23 07:33:39;;;;;;;14.98;8.90;;;17.70;99.90;;;;;;5109622;28;20484;-71
2022/05/23 07:36:06;;;;;;;10.63;7.47;;;17.70;99.90;;;;;;5109648;28;20130;-70
2022/05/23 07:38:32;;;;;;;12.43;7.65;;;17.50;99.90;;;;;;5109549;28;20044;-69
2022/05/23 07:40:58;;;;;;;;;;;17.90;99.90;;;;;;5108778;28;20051;-68
2022/05/23 07:43:24;;;;;;;15.93;7.57;;;18.20;99.90;;;;;;5109311;28;19920;-69
2022/05/23 07:45:51;;;;;;;9.90;7.03;;;18.30;99.90;;;;;;5109708;28;20083;-75
2022/05/23 07:48:17;;;;;;;14.07;7.85;;;18.60;99.90;;;;;;5109509;28;20055;-71
2022/05/23 07:50:43;;;;;;;;;;;18.50;99.90;;;;;;5109914;28;20039;-68
2022/05/23 08:01:27;;;;;;;14.38;8.52;;;18.70;99.90;;;;;;5109265;28;20475;-69
2022/05/23 08:03:54;;;;;;;9.95;6.80;;;18.90;99.90;;;;;;5108935;28;20503;-70
2022/05/23 08:06:20;;;;;;;17.33;7.07;;;18.90;99.90;;;;;;5107945;28;20052;-73
2022/05/23 08:08:46;;;;;;;12.43;7.15;;;19.00;99.90;;;;;;5109391;28;20050;-70
2022/05/23 08:11:13;;;;;;;11.98;6.70;;;19.10;99.90;;;;;;5107956;28;20086;-70
2022/05/23 08:13:42;;;;;;;8.80;6.60;;;19.20;99.90;;;;;;5109006;28;20043;-74
2022/05/23 08:16:07;;;;;;;14.32;7.65;;;19.50;99.90;;;;;;5100209;28;20124;-71
2022/05/23 08:18:33;;;;;;;10.30;7.18;;;19.90;99.90;;;;;;5095214;28;20530;-69
2022/05/23 08:21:00;;;;;;;19.42;8.25;;;19.70;99.90;;;;;;5095143;28;20434;-69
2022/05/23 08:23:26;;;;;;;11.52;7.03;;;19.60;99.90;;;;;;5095106;28;20484;-69
2022/05/23 08:25:52;;;;;;;11.07;6.80;;;20.00;99.90;;;;;;5095138;28;20539;-71
2022/05/23 08:28:19;;;;;;;13.40;6.93;;;19.80;99.90;;;;;;5095072;28;20472;-70
2022/05/23 08:30:45;;;;;;;8.90;6.20;;;20.00;99.90;;;;;;5095073;28;20407;-72
2022/05/23 08:33:11;;;;;;;13.60;7.28;;;19.80;99.90;;;;;;5095130;28;20043;-70
2022/05/23 08:35:37;;;;;;;14.63;6.72;;;19.70;99.90;;;;;;5094856;28;20119;-69
2022/05/23 08:38:04;;;;;;;14.95;6.70;;;20.10;99.90;;;;;;5095059;28;20039;-69
2022/05/23 08:40:57;;;;;;;8.35;6.10;;;20.00;99.90;;;;;;5094895;28;20044;-73
2022/05/23 08:43:34;;;;;;;11.80;6.75;;;20.00;99.90;;;;;;5094840;28;20403;-71
2022/05/23 08:46:01;;;;;;;8.68;6.65;;;20.30;99.90;;;;;;5094755;28;20411;-73
2022/05/23 08:48:45;;;;;;;11.82;6.70;;;20.50;99.90;;;;;;5094907;28;20073;-74
2022/05/23 08:51:15;;;;;;;13.40;7.03;;;20.80;99.90;;;;;;5094907;28;20044;-69
2022/05/23 08:53:57;;;;;;;11.52;7.78;;;20.50;99.90;;;;;;5094728;28;20117;-71
2022/05/23 08:56:45;;;;;;;8.25;5.78;;;20.90;99.90;;;;;;5094511;28;20507;-69
2022/05/23 08:59:25;;;;;;;11.52;5.85;;;21.00;99.90;;;;;;5094499;28;20052;-68
2022/05/23 09:02:01;;;;;;;12.75;6.18;;;20.80;99.90;;;;;;5094521;28;20055;-71
2022/05/23 09:04:36;;;;;;;;;;;21.00;99.90;;;;;;5094778;28;20484;-70
2022/05/23 09:07:05;;;;;;;17.42;7.32;;;21.10;99.90;;;;;;5094433;28;19924;-68
2022/05/23 09:09:34;;;;;;;10.30;6.35;;;20.90;99.90;;;;;;5094283;28;20441;-70
2022/05/23 09:12:13;;;;;;;12.73;6.72;;;21.10;99.90;;;;;;5092823;28;20480;-76
2022/05/23 09:14:39;;;;;;;11.70;7.00;;;21.40;99.90;;;;;;5094128;28;20063;-72
2022/05/23 09:17:17;;;;;;;8.85;6.40;;;20.90;99.90;;;;;;5094182;28;20488;-73
2022/05/23 09:20:00;;;;;;;7.00;6.05;;;21.00;99.90;;;;;;5094272;28;20043;-70
2022/05/23 09:22:47;;;;;;;12.88;6.60;;;20.70;99.90;;;;;;5094415;28;20189;-72
2022/05/23 09:25:17;;;;;;;10.88;5.78;;;21.20;99.90;;;;;;5089575;28;20042;-74
2022/05/23 09:27:49;;;;;;;12.93;6.65;;;21.30;99.90;;;;;;5090701;28;20052;-71
2022/05/23 09:30:21;;;;;;;8.60;5.78;;;21.20;99.90;;;;;;5091991;28;20048;-69
2022/05/23 09:32:58;;;;;;;10.40;6.47;;;21.60;99.90;;;;;;5093320;28;20056;-69
2022/05/23 09:35:26;;;;;;;16.50;6.90;;;21.40;99.90;;;;;;5092842;28;20052;-71
2022/05/23 09:38:22;;;;;;;14.35;7.28;;;21.90;99.90;;;;;;5093751;28;20044;-75
2022/05/23 09:40:49;;;;;;;9.35;5.70;;;21.70;99.90;;;;;;5093839;28;20119;-68
2022/05/23 09:49:02;;;;;;;9.82;6.20;;;22.00;99.90;;;;;;5093709;28;20067;-73
2022/05/23 09:51:29;;;;;;;11.57;6.00;;;21.90;99.90;;;;;;5093600;28;20059;-70
2022/05/23 09:53:54;;;;;;;12.05;6.75;;;22.10;99.90;;;;;;5093621;28;20097;-75
2022/05/23 09:56:31;;;;;;;13.50;6.45;;;22.30;99.90;;;;;;5093499;28;20040;-75
2022/05/23 09:59:17;;;;;;;10.85;5.85;;;22.70;99.90;;;;;;5091972;28;20043;-71
2022/05/23 10:01:43;;;;;;;10.43;6.43;;;22.50;99.90;;;;;;5092309;28;20129;-74
2022/05/23 10:04:18;;;;;;;11.75;6.53;;;22.30;99.90;;;;;;5092936;28;20091;-71
2022/05/23 10:06:51;;;;;;;12.10;6.15;;;22.50;99.90;;;;;;5093279;28;20120;-70
2022/05/23 10:09:30;;;;;;;8.70;6.05;;;22.70;99.90;;;;;;5093321;28;20145;-73
2022/05/23 10:12:06;;;;;;;18.70;6.40;;;22.60;99.90;;;;;;5093366;28;20044;-70
2022/05/23 10:14:44;;;;;;;13.25;6.40;;;22.90;99.90;;;;;;5093271;28;20036;-68
2022/05/23 10:17:24;;;;;;;11.63;5.75;;;23.10;99.90;;;;;;5092991;28;20094;-68
2022/05/23 10:19:50;;;;;;;9.65;6.30;;;23.40;99.90;;;;;;5092955;28;20046;-73
2022/05/23 10:22:22;;;;;;;9.18;6.60;;;23.40;99.90;;;;;;5093202;28;20127;-67
2022/05/23 10:24:59;;;;;;;8.30;5.82;;;23.90;99.90;;;;;;5091675;28;20067;-73
2022/05/23 10:27:59;;;;;;;11.75;6.82;;;23.70;99.90;;;;;;5093086;28;20048;-71
2022/05/23 10:30:30;;;;;;;8.45;5.70;;;23.50;99.90;;;;;;5070112;28;20062;-70
2022/05/23 10:33:27;;;;;;;6.90;4.82;;;23.50;99.90;;;;;;5092972;28;20403;-67
2022/05/23 10:36:04;;;;;;;9.40;4.95;;;23.40;99.90;;;;;;5084238;28;20055;-75
2022/05/23 10:44:36;;;;;;;10.18;3.67;;;23.30;99.90;;;;;;5092727;28;20109;-70
2022/05/23 10:47:30;;;;;;;8.98;4.07;;;23.20;99.90;;;;;;5092546;28;20054;-72
2022/05/23 10:50:18;;;;;;;7.18;3.90;;;23.00;99.90;;;;;;5092652;28;20101;-70
2022/05/23 10:53:12;;;;;;;7.30;4.05;;;23.10;99.90;;;;;;5092644;28;20056;-67
2022/05/23 10:55:44;;;;;;;7.90;3.67;;;23.30;99.90;;;;;;5091578;28;20138;-78
2022/05/23 10:58:31;;;;;;;10.15;3.35;;;24.10;99.90;;;;;;5092668;28;20048;-69
2022/05/23 11:01:34;;;;;;;9.07;3.03;;;24.30;99.90;;;;;;5092464;28;20400;-70
2022/05/23 11:04:27;;;;;;;7.13;3.67;;;24.30;99.90;;;;;;5092145;28;20060;-68
2022/05/23 11:06:58;;;;;;;8.60;3.47;;;24.80;99.90;;;;;;5092397;28;20055;-68
2022/05/23 11:09:30;;;;;;;4.35;3.10;;;25.00;99.90;;;;;;5091323;28;20093;-71
2022/05/23 11:12:21;;;;;;;5.78;2.95;;;24.90;99.90;;;;;;5092212;28;20048;-69
2022/05/23 11:15:05;;;;;;;8.77;3.35;;;25.20;99.90;;;;;;5086685;28;20091;-70
2022/05/23 11:17:58;;;;;;;8.15;3.67;;;25.60;99.90;;;;;;5074586;28;20094;-72
2022/05/23 11:20:35;;;;;;;5.80;2.70;;;25.50;99.90;;;;;;5072644;28;20099;-69
2022/05/23 11:23:09;;;;;;;7.60;3.65;;;25.50;99.90;;;;;;5091231;28;20555;-69
2022/05/23 11:25:39;;;;;;;5.15;2.80;;;25.40;99.90;;;;;;5092234;28;20041;-69
2022/05/23 11:34:22;;;;;;;7.15;2.67;;;25.00;99.90;;;;;;5092274;28;20058;-71
2022/05/23 11:37:09;;;;;;;4.63;2.45;;;25.30;99.90;;;;;;5092199;28;20059;-76
2022/05/23 11:39:46;;;;;;;6.72;2.38;;;25.30;99.90;;;;;;5092128;28;20048;-72
2022/05/23 11:42:14;;;;;;;4.55;2.22;;;25.60;99.90;;;;;;5092136;28;20052;-77
2022/05/23 11:44:43;;;;;;;8.32;3.08;;;25.20;99.90;;;;;;5092039;28;20040;-72
2022/05/23 11:47:13;;;;;;;3.45;2.72;;;25.20;99.90;;;;;;5092056;28;20105;-70
2022/05/23 11:49:48;;;;;;;6.70;2.60;;;25.10;99.90;;;;;;5092338;28;20052;-73
2022/05/23 11:52:40;;;;;;;8.93;2.28;;;25.10;99.90;;;;;;5095428;28;20043;-73
2022/05/23 11:55:09;;;;;;;3.53;2.30;;;25.70;99.90;;;;;;5094864;28;20048;-75
2022/05/23 11:57:36;;;;;;;10.52;2.28;;;25.40;99.90;;;;;;5094758;28;20059;-71
2022/05/23 12:00:26;;;;;;;4.35;2.42;;;25.60;99.90;;;;;;5095830;28;20056;-69
2022/05/23 12:03:03;;;;;;;5.15;2.72;;;25.40;99.90;;;;;;5095947;28;20476;-71
2022/05/23 12:05:32;;;;;;;5.80;2.30;;;25.70;99.90;;;;;;5095359;28;20103;-70
2022/05/23 12:08:01;;;;;;;5.32;2.50;;;25.60;99.90;;;;;;5095650;28;20040;-67
2022/05/23 12:10:28;;;;;;;16.13;2.35;;;25.10;99.90;;;;;;5095507;28;20529;-70
2022/05/23 12:13:15;;;;;;;4.03;2.30;;;25.40;99.90;;;;;;5095673;28;20058;-77
2022/05/23 12:15:44;;;;;;;6.28;2.58;;;25.00;99.90;;;;;;5095550;28;20087;-72
2022/05/23 12:18:22;;;;;;;4.55;2.58;;;25.50;99.90;;;;;;5095450;28;20047;-76
2022/05/23 12:20:51;;;;;;;3.70;2.15;;;26.00;99.90;;;;;;5095272;28;20131;-72
2022/05/23 12:23:42;;;;;;;7.25;2.35;;;25.80;99.90;;;;;;5095095;28;20040;-79
2022/05/23 12:26:11;;;;;;;6.18;2.80;;;26.20;99.90;;;;;;5095231;28;20080;-72
2022/05/23 12:28:48;;;;;;;3.80;2.47;;;26.10;99.90;;;;;;5095226;28;20043;-80
2022/05/23 12:31:29;;;;;;;9.23;2.65;;;25.90;99.90;;;;;;5095033;28;20063;-73
2022/05/23 12:34:03;;;;;;;7.47;2.58;;;26.30;99.90;;;;;;5095233;28;20047;-74
2022/05/23 12:36:32;;;;;;;5.47;2.60;;;26.00;99.90;;;;;;5094872;28;20152;-73
2022/05/23 12:39:25;;;;;;;4.75;2.50;;;25.80;99.90;;;;;;5094907;28;20048;-70
2022/05/23 12:42:13;;;;;;;4.82;2.33;;;25.90;99.90;;;;;;5094949;28;20396;-70
2022/05/23 12:45:11;;;;;;;5.55;2.30;;;25.50;99.90;;;;;;5094857;28;20078;-72
2022/05/23 12:48:00;;;;;;;6.15;2.40;;;26.00;99.90;;;;;;5094845;28;20051;-72
2022/05/23 12:50:37;;;;;;;6.63;2.70;;;25.60;99.90;;;;;;5093919;28;20160;-73
2022/05/23 12:53:20;;;;;;;5.25;2.40;;;25.60;99.90;;;;;;5094773;28;20048;-73
2022/05/23 12:55:51;;;;;;;7.53;2.45;;;25.70;99.90;;;;;;5076819;28;20479;-70
2022/05/23 12:58:35;;;;;;;5.60;2.65;;;25.40;99.90;;;;;;5094479;28;20427;-70
2022/05/23 13:01:10;;;;;;;4.80;3.17;;;25.10;99.90;;;;;;5094769;28;20044;-74
2022/05/23 13:03:41;;;;;;;3.90;2.38;;;25.40;99.90;;;;;;5093298;28;20105;-76
2022/05/23 13:06:35;;;;;;;5.68;2.50;;;25.30;99.90;;;;;;5094435;28;20466;-70
2022/05/23 13:09:06;;;;;;;3.75;2.65;;;24.70;99.90;;;;;;5094573;28;20056;-72
2022/05/23 13:11:43;;;;;;;5.63;2.65;;;25.00;99.90;;;;;;5094527;28;20044;-72
2022/05/23 13:14:09;;;;;;;5.05;2.47;;;25.00;99.90;;;;;;5094359;28;20052;-69
2022/05/23 13:16:38;;;;;;;4.65;2.53;;;24.90;99.90;;;;;;5094305;28;20047;-75
2022/05/23 13:22:14;;;;;;;5.03;2.53;;;24.50;99.90;;;;;;5094162;28;20051;-73
2022/05/23 13:24:49;;;;;;;6.15;2.45;;;24.30;99.90;;;;;;5094155;28;20040;-74
2022/05/23 13:27:19;;;;;;;7.78;2.50;;;24.50;99.90;;;;;;5094118;28;20047;-70
2022/05/23 13:29:51;;;;;;;5.22;2.38;;;24.40;99.90;;;;;;5093993;28;20500;-74
2022/05/23 13:32:18;;;;;;;3.45;2.28;;;24.40;99.90;;;;;;5093921;28;20449;-76
2022/05/23 13:34:45;;;;;;;7.18;2.58;;;23.70;99.90;;;;;;5092816;28;20051;-79
2022/05/23 13:37:35;;;;;;;7.90;2.72;;;23.70;99.90;;;;;;5093768;28;20048;-73
2022/05/23 13:40:14;;;;;;;5.65;3.00;;;23.70;99.90;;;;;;5093693;28;20075;-71
2022/05/23 13:42:40;;;;;;;4.70;2.80;;;23.30;99.90;;;;;;5093992;28;20044;-70
2022/05/23 13:45:18;;;;;;;7.03;2.97;;;23.40;99.90;;;;;;5093633;28;20083;-70
2022/05/23 13:47:52;;;;;;;8.23;3.05;;;23.20;99.90;;;;;;5093658;28;20400;-69
2022/05/23 13:50:34;;;;;;;8.30;2.97;;;23.00;99.90;;;;;;5093443;28;20419;-70
2022/05/23 13:53:06;;;;;;;5.88;3.33;;;23.00;99.90;;;;;;5092710;28;20056;-69
2022/05/23 13:55:40;;;;;;;4.65;3.28;;;23.00;99.90;;;;;;5093644;28;20579;-70
2022/05/23 13:58:21;;;;;;;7.30;3.60;;;23.10;99.90;;;;;;5093533;28;20051;-70
2022/05/23 14:00:53;;;;;;;8.27;3.60;;;22.80;99.90;;;;;;5093427;28;20376;-70
2022/05/23 14:03:27;;;;;;;4.25;3.40;;;22.80;99.90;;;;;;5093270;28;20048;-70
2022/05/23 14:05:54;;;;;;;7.05;3.15;;;22.80;99.90;;;;;;5093333;28;20484;-69
2022/05/23 14:08:36;;;;;;;5.10;3.63;;;23.00;99.90;;;;;;5093257;28;20129;-70
2022/05/23 14:11:07;;;;;;;5.78;3.20;;;23.40;99.90;;;;;;5093180;28;20051;-70
2022/05/23 14:13:34;;;;;;;8.43;3.97;;;23.80;99.90;;;;;;5091431;28;20044;-70
2022/05/23 14:16:02;;;;;;;8.13;3.40;;;24.10;99.90;;;;;;5093079;28;20066;-70